sensor_id;sensor_type;location;lat;lon;timestamp;P1;durP1;ratioP1;P2;durP2;ratioP2
21046;SDS011;10682;50.874;3.656;2023-01-04T00:01:20;6.40;;;3.30;;
21046;SDS011;10682;50.874;3.656;2023-01-04T00:03:48;8.77;;;3.10;;
21046;SDS011;10682;50.874;3.656;2023-01-04T00:06:15;6.40;;;3.10;;
21046;SDS011;10682;50.874;3.656;2023-01-04T00:08:43;8.33;;;3.43;;
21046;SDS011;10682;50.874;3.656;2023-01-04T00:11:20;9.77;;;3.13;;
21046;SDS011;10682;50.874;3.656;2023-01-04T00:13:50;7.23;;;3.10;;
21046;SDS011;10682;50.874;3.656;2023-01-04T00:16:19;10.10;;;3.47;;
21046;SDS011;10682;50.874;3.656;2023-01-04T00:18:49;9.63;;;3.53;;
21046;SDS011;10682;50.874;3.656;2023-01-04T00:23:53;6.83;;;3.13;;
21046;SDS011;10682;50.874;3.656;2023-01-04T00:26:24;8.73;;;3.33;;
21046;SDS011;10682;50.874;3.656;2023-01-04T00:28:54;7.00;;;3.60;;
21046;SDS011;10682;50.874;3.656;2023-01-04T00:31:27;10.90;;;3.57;;
21046;SDS011;10682;50.874;3.656;2023-01-04T00:33:58;9.23;;;3.30;;
21046;SDS011;10682;50.874;3.656;2023-01-04T00:36:27;8.30;;;4.30;;
21046;SDS011;10682;50.874;3.656;2023-01-04T00:38:56;8.53;;;3.27;;
21046;SDS011;10682;50.874;3.656;2023-01-04T00:41:39;10.47;;;3.47;;
21046;SDS011;10682;50.874;3.656;2023-01-04T00:44:26;12.33;;;3.80;;
21046;SDS011;10682;50.874;3.656;2023-01-04T00:46:54;9.63;;;3.23;;
21046;SDS011;10682;50.874;3.656;2023-01-04T00:49:22;12.60;;;3.60;;
21046;SDS011;10682;50.874;3.656;2023-01-04T00:51:49;6.77;;;3.10;;
21046;SDS011;10682;50.874;3.656;2023-01-04T00:54:17;7.40;;;3.00;;
21046;SDS011;10682;50.874;3.656;2023-01-04T00:56:45;5.33;;;2.70;;
21046;SDS011;10682;50.874;3.656;2023-01-04T00:59:14;8.07;;;3.20;;
21046;SDS011;10682;50.874;3.656;2023-01-04T01:01:45;7.23;;;2.90;;
21046;SDS011;10682;50.874;3.656;2023-01-04T01:04:14;7.27;;;2.50;;
21046;SDS011;10682;50.874;3.656;2023-01-04T01:06:43;5.77;;;2.30;;
21046;SDS011;10682;50.874;3.656;2023-01-04T01:09:10;7.53;;;2.43;;
21046;SDS011;10682;50.874;3.656;2023-01-04T01:11:38;7.13;;;2.30;;
21046;SDS011;10682;50.874;3.656;2023-01-04T01:14:06;4.83;;;1.97;;
21046;SDS011;10682;50.874;3.656;2023-01-04T01:16:34;7.77;;;2.30;;
21046;SDS011;10682;50.874;3.656;2023-01-04T01:19:20;5.50;;;2.30;;
21046;SDS011;10682;50.874;3.656;2023-01-04T01:21:48;7.50;;;2.57;;
21046;SDS011;10682;50.874;3.656;2023-01-04T01:24:16;6.77;;;2.30;;
21046;SDS011;10682;50.874;3.656;2023-01-04T01:26:45;8.80;;;2.20;;
21046;SDS011;10682;50.874;3.656;2023-01-04T01:29:12;5.00;;;2.17;;
21046;SDS011;10682;50.874;3.656;2023-01-04T01:31:40;5.77;;;2.17;;
21046;SDS011;10682;50.874;3.656;2023-01-04T01:34:07;6.30;;;1.83;;
21046;SDS011;10682;50.874;3.656;2023-01-04T01:36:34;10.60;;;2.03;;
21046;SDS011;10682;50.874;3.656;2023-01-04T01:39:03;6.97;;;2.20;;
21046;SDS011;10682;50.874;3.656;2023-01-04T01:41:32;8.33;;;2.70;;
21046;SDS011;10682;50.874;3.656;2023-01-04T01:47:31;7.30;;;2.27;;
21046;SDS011;10682;50.874;3.656;2023-01-04T01:50:14;6.43;;;2.53;;
21046;SDS011;10682;50.874;3.656;2023-01-04T01:52:53;5.47;;;2.03;;
21046;SDS011;10682;50.874;3.656;2023-01-04T01:55:24;7.00;;;2.47;;
21046;SDS011;10682;50.874;3.656;2023-01-04T01:57:51;6.80;;;2.30;;
21046;SDS011;10682;50.874;3.656;2023-01-04T02:00:19;5.87;;;1.90;;
21046;SDS011;10682;50.874;3.656;2023-01-04T02:03:02;4.60;;;2.20;;
21046;SDS011;10682;50.874;3.656;2023-01-04T02:05:55;6.90;;;2.40;;
21046;SDS011;10682;50.874;3.656;2023-01-04T02:08:24;4.27;;;2.03;;
21046;SDS011;10682;50.874;3.656;2023-01-04T02:10:51;6.93;;;2.00;;
21046;SDS011;10682;50.874;3.656;2023-01-04T02:13:20;7.90;;;2.30;;
21046;SDS011;10682;50.874;3.656;2023-01-04T02:16:14;7.33;;;1.97;;
21046;SDS011;10682;50.874;3.656;2023-01-04T02:18:53;6.07;;;2.00;;
21046;SDS011;10682;50.874;3.656;2023-01-04T02:27:40;10.27;;;2.20;;
21046;SDS011;10682;50.874;3.656;2023-01-04T02:35:48;5.17;;;2.13;;
21046;SDS011;10682;50.874;3.656;2023-01-04T02:41:25;7.90;;;2.00;;
21046;SDS011;10682;50.874;3.656;2023-01-04T02:44:23;6.37;;;2.03;;
21046;SDS011;10682;50.874;3.656;2023-01-04T02:47:16;7.17;;;2.10;;
21046;SDS011;10682;50.874;3.656;2023-01-04T02:53:11;6.30;;;2.27;;
21046;SDS011;10682;50.874;3.656;2023-01-04T02:56:06;6.47;;;2.13;;
21046;SDS011;10682;50.874;3.656;2023-01-04T03:02:41;5.90;;;2.00;;
21046;SDS011;10682;50.874;3.656;2023-01-04T03:05:21;7.17;;;2.40;;
21046;SDS011;10682;50.874;3.656;2023-01-04T03:09:00;2.60;;;1.80;;
21046;SDS011;10682;50.874;3.656;2023-01-04T03:11:43;4.87;;;1.70;;
21046;SDS011;10682;50.874;3.656;2023-01-04T03:15:09;6.40;;;2.10;;
21046;SDS011;10682;50.874;3.656;2023-01-04T03:17:40;5.70;;;1.77;;
21046;SDS011;10682;50.874;3.656;2023-01-04T03:20:37;5.30;;;2.00;;
21046;SDS011;10682;50.874;3.656;2023-01-04T03:23:05;5.20;;;2.10;;
21046;SDS011;10682;50.874;3.656;2023-01-04T03:28:53;5.83;;;2.00;;
21046;SDS011;10682;50.874;3.656;2023-01-04T03:31:50;5.90;;;2.10;;
21046;SDS011;10682;50.874;3.656;2023-01-04T03:34:40;5.40;;;1.93;;
21046;SDS011;10682;50.874;3.656;2023-01-04T03:37:30;5.67;;;1.80;;
21046;SDS011;10682;50.874;3.656;2023-01-04T03:40:23;3.87;;;1.93;;
21046;SDS011;10682;50.874;3.656;2023-01-04T03:43:18;5.67;;;2.20;;
21046;SDS011;10682;50.874;3.656;2023-01-04T03:46:33;5.30;;;1.97;;
21046;SDS011;10682;50.874;3.656;2023-01-04T03:49:36;7.07;;;1.73;;
21046;SDS011;10682;50.874;3.656;2023-01-04T03:52:23;5.37;;;1.60;;
21046;SDS011;10682;50.874;3.656;2023-01-04T03:54:53;4.03;;;1.43;;
21046;SDS011;10682;50.874;3.656;2023-01-04T03:57:23;3.03;;;1.37;;
21046;SDS011;10682;50.874;3.656;2023-01-04T03:59:52;4.73;;;1.40;;
21046;SDS011;10682;50.874;3.656;2023-01-04T04:02:29;6.03;;;1.70;;
21046;SDS011;10682;50.874;3.656;2023-01-04T04:04:58;4.23;;;1.47;;
21046;SDS011;10682;50.874;3.656;2023-01-04T04:07:43;2.43;;;1.60;;
21046;SDS011;10682;50.874;3.656;2023-01-04T04:10:29;4.13;;;1.60;;
21046;SDS011;10682;50.874;3.656;2023-01-04T04:12:56;6.93;;;1.50;;
21046;SDS011;10682;50.874;3.656;2023-01-04T04:15:23;4.23;;;1.40;;
21046;SDS011;10682;50.874;3.656;2023-01-04T04:17:50;3.57;;;1.60;;
21046;SDS011;10682;50.874;3.656;2023-01-04T04:20:17;4.27;;;1.53;;
21046;SDS011;10682;50.874;3.656;2023-01-04T04:22:44;3.13;;;1.40;;
21046;SDS011;10682;50.874;3.656;2023-01-04T04:25:11;4.43;;;1.50;;
21046;SDS011;10682;50.874;3.656;2023-01-04T04:27:38;3.73;;;1.40;;
21046;SDS011;10682;50.874;3.656;2023-01-04T04:30:05;4.33;;;1.40;;
21046;SDS011;10682;50.874;3.656;2023-01-04T04:32:33;9.07;;;1.40;;
21046;SDS011;10682;50.874;3.656;2023-01-04T04:35:00;3.17;;;1.00;;
21046;SDS011;10682;50.874;3.656;2023-01-04T04:37:27;3.10;;;1.10;;
21046;SDS011;10682;50.874;3.656;2023-01-04T04:39:57;1.83;;;1.10;;
21046;SDS011;10682;50.874;3.656;2023-01-04T04:42:24;3.70;;;1.10;;
21046;SDS011;10682;50.874;3.656;2023-01-04T04:44:51;4.27;;;1.30;;
21046;SDS011;10682;50.874;3.656;2023-01-04T04:47:18;5.20;;;1.40;;
21046;SDS011;10682;50.874;3.656;2023-01-04T04:49:45;4.70;;;1.10;;
21046;SDS011;10682;50.874;3.656;2023-01-04T04:52:12;3.37;;;1.20;;
21046;SDS011;10682;50.874;3.656;2023-01-04T04:54:39;2.70;;;1.10;;
21046;SDS011;10682;50.874;3.656;2023-01-04T04:57:06;2.60;;;1.10;;
21046;SDS011;10682;50.874;3.656;2023-01-04T04:59:33;3.87;;;1.30;;
21046;SDS011;10682;50.874;3.656;2023-01-04T05:02:02;4.77;;;1.30;;
21046;SDS011;10682;50.874;3.656;2023-01-04T05:04:29;4.70;;;1.10;;
21046;SDS011;10682;50.874;3.656;2023-01-04T05:06:56;3.30;;;1.10;;
21046;SDS011;10682;50.874;3.656;2023-01-04T05:09:23;3.13;;;1.20;;
21046;SDS011;10682;50.874;3.656;2023-01-04T05:11:50;2.57;;;1.03;;
21046;SDS011;10682;50.874;3.656;2023-01-04T05:14:35;2.13;;;1.10;;
21046;SDS011;10682;50.874;3.656;2023-01-04T05:17:02;6.43;;;1.40;;
21046;SDS011;10682;50.874;3.656;2023-01-04T05:19:29;2.90;;;1.33;;
21046;SDS011;10682;50.874;3.656;2023-01-04T05:21:56;3.43;;;1.50;;
21046;SDS011;10682;50.874;3.656;2023-01-04T05:24:23;4.43;;;1.10;;
21046;SDS011;10682;50.874;3.656;2023-01-04T05:26:50;3.17;;;1.10;;
21046;SDS011;10682;50.874;3.656;2023-01-04T05:29:17;3.40;;;1.27;;
21046;SDS011;10682;50.874;3.656;2023-01-04T05:32:03;2.00;;;1.20;;
21046;SDS011;10682;50.874;3.656;2023-01-04T05:34:30;1.83;;;1.00;;
21046;SDS011;10682;50.874;3.656;2023-01-04T05:36:57;3.33;;;1.00;;
21046;SDS011;10682;50.874;3.656;2023-01-04T05:39:24;2.73;;;1.17;;
21046;SDS011;10682;50.874;3.656;2023-01-04T05:41:51;3.80;;;1.17;;
21046;SDS011;10682;50.874;3.656;2023-01-04T05:44:37;3.43;;;1.23;;
21046;SDS011;10682;50.874;3.656;2023-01-04T05:47:04;1.67;;;1.07;;
21046;SDS011;10682;50.874;3.656;2023-01-04T05:49:39;4.57;;;1.17;;
21046;SDS011;10682;50.874;3.656;2023-01-04T05:52:08;3.63;;;0.90;;
21046;SDS011;10682;50.874;3.656;2023-01-04T05:54:36;2.07;;;0.90;;
21046;SDS011;10682;50.874;3.656;2023-01-04T05:57:03;3.17;;;1.10;;
21046;SDS011;10682;50.874;3.656;2023-01-04T05:59:30;2.37;;;0.90;;
21046;SDS011;10682;50.874;3.656;2023-01-04T06:02:06;4.03;;;0.90;;
21046;SDS011;10682;50.874;3.656;2023-01-04T06:04:46;3.03;;;1.07;;
21046;SDS011;10682;50.874;3.656;2023-01-04T06:07:23;5.23;;;1.10;;
21046;SDS011;10682;50.874;3.656;2023-01-04T06:09:50;1.63;;;0.90;;
21046;SDS011;10682;50.874;3.656;2023-01-04T06:12:17;5.00;;;1.10;;
21046;SDS011;10682;50.874;3.656;2023-01-04T06:14:44;2.43;;;1.03;;
21046;SDS011;10682;50.874;3.656;2023-01-04T06:17:11;2.43;;;0.90;;
21046;SDS011;10682;50.874;3.656;2023-01-04T06:19:38;2.70;;;0.90;;
21046;SDS011;10682;50.874;3.656;2023-01-04T06:22:05;4.33;;;1.20;;
21046;SDS011;10682;50.874;3.656;2023-01-04T06:24:33;4.70;;;1.00;;
21046;SDS011;10682;50.874;3.656;2023-01-04T06:27:00;4.20;;;0.90;;
21046;SDS011;10682;50.874;3.656;2023-01-04T06:29:28;6.13;;;1.27;;
21046;SDS011;10682;50.874;3.656;2023-01-04T06:31:55;3.80;;;1.13;;
21046;SDS011;10682;50.874;3.656;2023-01-04T06:34:22;3.70;;;1.10;;
21046;SDS011;10682;50.874;3.656;2023-01-04T06:36:56;5.57;;;1.03;;
21046;SDS011;10682;50.874;3.656;2023-01-04T06:39:23;2.90;;;1.00;;
21046;SDS011;10682;50.874;3.656;2023-01-04T06:41:50;4.70;;;1.07;;
21046;SDS011;10682;50.874;3.656;2023-01-04T06:44:17;7.23;;;1.10;;
21046;SDS011;10682;50.874;3.656;2023-01-04T06:46:44;2.43;;;1.10;;
21046;SDS011;10682;50.874;3.656;2023-01-04T06:49:11;2.43;;;1.00;;
21046;SDS011;10682;50.874;3.656;2023-01-04T06:51:39;5.07;;;1.10;;
21046;SDS011;10682;50.874;3.656;2023-01-04T06:54:08;6.13;;;0.97;;
21046;SDS011;10682;50.874;3.656;2023-01-04T06:56:37;4.03;;;1.03;;
21046;SDS011;10682;50.874;3.656;2023-01-04T06:59:08;3.20;;;0.90;;
21046;SDS011;10682;50.874;3.656;2023-01-04T07:01:35;3.20;;;1.13;;
21046;SDS011;10682;50.874;3.656;2023-01-04T07:04:02;4.00;;;1.77;;
21046;SDS011;10682;50.874;3.656;2023-01-04T07:06:29;6.50;;;1.67;;
21046;SDS011;10682;50.874;3.656;2023-01-04T07:08:56;2.73;;;1.10;;
21046;SDS011;10682;50.874;3.656;2023-01-04T07:11:23;9.03;;;1.17;;
21046;SDS011;10682;50.874;3.656;2023-01-04T07:13:50;5.07;;;1.23;;
21046;SDS011;10682;50.874;3.656;2023-01-04T07:16:18;6.00;;;1.40;;
21046;SDS011;10682;50.874;3.656;2023-01-04T07:18:45;3.23;;;1.10;;
21046;SDS011;10682;50.874;3.656;2023-01-04T07:21:12;6.97;;;1.07;;
21046;SDS011;10682;50.874;3.656;2023-01-04T07:23:40;5.97;;;1.43;;
21046;SDS011;10682;50.874;3.656;2023-01-04T07:26:07;7.97;;;1.30;;
21046;SDS011;10682;50.874;3.656;2023-01-04T07:28:33;3.27;;;0.97;;
21046;SDS011;10682;50.874;3.656;2023-01-04T07:31:19;4.77;;;1.27;;
21046;SDS011;10682;50.874;3.656;2023-01-04T07:33:47;2.73;;;1.10;;
21046;SDS011;10682;50.874;3.656;2023-01-04T07:36:16;4.10;;;1.30;;
21046;SDS011;10682;50.874;3.656;2023-01-04T07:38:43;5.20;;;1.37;;
21046;SDS011;10682;50.874;3.656;2023-01-04T07:41:10;4.17;;;1.10;;
21046;SDS011;10682;50.874;3.656;2023-01-04T07:43:37;4.33;;;1.10;;
21046;SDS011;10682;50.874;3.656;2023-01-04T07:46:04;4.77;;;1.47;;
21046;SDS011;10682;50.874;3.656;2023-01-04T07:48:31;4.80;;;1.33;;
21046;SDS011;10682;50.874;3.656;2023-01-04T07:50:58;5.23;;;1.40;;
21046;SDS011;10682;50.874;3.656;2023-01-04T07:53:25;3.30;;;1.10;;
21046;SDS011;10682;50.874;3.656;2023-01-04T07:55:56;2.50;;;1.40;;
21046;SDS011;10682;50.874;3.656;2023-01-04T07:58:24;5.50;;;1.40;;
21046;SDS011;10682;50.874;3.656;2023-01-04T08:00:56;1.90;;;1.20;;
21046;SDS011;10682;50.874;3.656;2023-01-04T08:03:34;3.47;;;1.00;;
21046;SDS011;10682;50.874;3.656;2023-01-04T08:06:01;5.77;;;1.23;;
21046;SDS011;10682;50.874;3.656;2023-01-04T08:08:30;3.63;;;1.07;;
21046;SDS011;10682;50.874;3.656;2023-01-04T08:11:04;1.67;;;0.90;;
21046;SDS011;10682;50.874;3.656;2023-01-04T08:13:34;3.40;;;1.63;;
21046;SDS011;10682;50.874;3.656;2023-01-04T08:16:01;4.67;;;1.50;;
21046;SDS011;10682;50.874;3.656;2023-01-04T08:18:29;5.13;;;1.10;;
21046;SDS011;10682;50.874;3.656;2023-01-04T08:21:03;3.57;;;1.30;;
21046;SDS011;10682;50.874;3.656;2023-01-04T08:23:34;4.70;;;1.43;;
21046;SDS011;10682;50.874;3.656;2023-01-04T08:26:03;2.67;;;1.20;;
21046;SDS011;10682;50.874;3.656;2023-01-04T08:28:33;5.07;;;1.43;;
21046;SDS011;10682;50.874;3.656;2023-01-04T08:31:24;3.03;;;1.43;;
21046;SDS011;10682;50.874;3.656;2023-01-04T08:33:55;10.30;;;2.60;;
21046;SDS011;10682;50.874;3.656;2023-01-04T08:36:25;9.03;;;2.83;;
21046;SDS011;10682;50.874;3.656;2023-01-04T08:38:55;8.00;;;2.30;;
21046;SDS011;10682;50.874;3.656;2023-01-04T08:41:30;5.23;;;2.07;;
21046;SDS011;10682;50.874;3.656;2023-01-04T08:44:20;8.70;;;2.50;;
21046;SDS011;10682;50.874;3.656;2023-01-04T08:46:49;4.40;;;1.63;;
21046;SDS011;10682;50.874;3.656;2023-01-04T08:49:17;6.20;;;1.50;;
21046;SDS011;10682;50.874;3.656;2023-01-04T08:51:45;3.83;;;1.33;;
21046;SDS011;10682;50.874;3.656;2023-01-04T08:54:13;7.50;;;1.63;;
21046;SDS011;10682;50.874;3.656;2023-01-04T08:56:41;6.83;;;1.70;;
21046;SDS011;10682;50.874;3.656;2023-01-04T08:59:09;12.37;;;3.03;;
21046;SDS011;10682;50.874;3.656;2023-01-04T09:01:38;7.90;;;1.80;;
21046;SDS011;10682;50.874;3.656;2023-01-04T09:04:05;11.00;;;3.47;;
21046;SDS011;10682;50.874;3.656;2023-01-04T09:06:33;4.97;;;2.00;;
21046;SDS011;10682;50.874;3.656;2023-01-04T09:09:00;8.13;;;2.13;;
21046;SDS011;10682;50.874;3.656;2023-01-04T09:11:27;6.20;;;1.80;;
21046;SDS011;10682;50.874;3.656;2023-01-04T09:13:54;5.13;;;1.70;;
21046;SDS011;10682;50.874;3.656;2023-01-04T09:16:33;5.23;;;1.40;;
21046;SDS011;10682;50.874;3.656;2023-01-04T09:19:01;3.87;;;1.20;;
21046;SDS011;10682;50.874;3.656;2023-01-04T09:21:28;6.37;;;1.80;;
21046;SDS011;10682;50.874;3.656;2023-01-04T09:23:56;7.30;;;1.60;;
21046;SDS011;10682;50.874;3.656;2023-01-04T09:26:24;4.27;;;1.30;;
21046;SDS011;10682;50.874;3.656;2023-01-04T09:28:52;5.37;;;1.50;;
21046;SDS011;10682;50.874;3.656;2023-01-04T09:31:22;6.53;;;1.80;;
21046;SDS011;10682;50.874;3.656;2023-01-04T09:33:54;4.70;;;1.83;;
21046;SDS011;10682;50.874;3.656;2023-01-04T09:36:41;5.47;;;1.73;;
21046;SDS011;10682;50.874;3.656;2023-01-04T09:39:09;2.47;;;1.30;;
21046;SDS011;10682;50.874;3.656;2023-01-04T09:41:57;4.23;;;1.70;;
21046;SDS011;10682;50.874;3.656;2023-01-04T09:44:40;9.03;;;1.60;;
21046;SDS011;10682;50.874;3.656;2023-01-04T09:50:20;4.33;;;1.90;;
21046;SDS011;10682;50.874;3.656;2023-01-04T09:55:35;4.67;;;1.60;;
21046;SDS011;10682;50.874;3.656;2023-01-04T09:58:16;2.97;;;1.50;;
21046;SDS011;10682;50.874;3.656;2023-01-04T10:00:57;7.40;;;3.20;;
21046;SDS011;10682;50.874;3.656;2023-01-04T10:07:18;12.10;;;4.00;;
21046;SDS011;10682;50.874;3.656;2023-01-04T10:09:57;5.13;;;1.67;;
21046;SDS011;10682;50.874;3.656;2023-01-04T10:12:43;8.23;;;2.90;;
21046;SDS011;10682;50.874;3.656;2023-01-04T10:15:37;9.40;;;3.03;;
21046;SDS011;10682;50.874;3.656;2023-01-04T10:21:25;5.73;;;2.40;;
21046;SDS011;10682;50.874;3.656;2023-01-04T10:26:49;7.97;;;2.03;;
21046;SDS011;10682;50.874;3.656;2023-01-04T10:29:38;9.80;;;2.33;;
21046;SDS011;10682;50.874;3.656;2023-01-04T10:32:40;8.60;;;2.03;;
21046;SDS011;10682;50.874;3.656;2023-01-04T10:35:20;6.23;;;1.50;;
21046;SDS011;10682;50.874;3.656;2023-01-04T10:37:54;4.73;;;1.63;;
21046;SDS011;10682;50.874;3.656;2023-01-04T10:40:26;8.17;;;2.00;;
21046;SDS011;10682;50.874;3.656;2023-01-04T10:48:43;5.10;;;1.57;;
21046;SDS011;10682;50.874;3.656;2023-01-04T10:51:39;2.87;;;1.40;;
21046;SDS011;10682;50.874;3.656;2023-01-04T10:54:26;5.13;;;1.70;;
21046;SDS011;10682;50.874;3.656;2023-01-04T10:57:07;4.57;;;1.60;;
21046;SDS011;10682;50.874;3.656;2023-01-04T11:00:14;4.33;;;1.40;;
21046;SDS011;10682;50.874;3.656;2023-01-04T11:08:11;4.77;;;1.33;;
21046;SDS011;10682;50.874;3.656;2023-01-04T11:13:21;3.80;;;1.20;;
21046;SDS011;10682;50.874;3.656;2023-01-04T11:15:50;5.20;;;1.50;;
21046;SDS011;10682;50.874;3.656;2023-01-04T11:18:18;3.67;;;1.80;;
21046;SDS011;10682;50.874;3.656;2023-01-04T11:20:45;6.77;;;3.07;;
21046;SDS011;10682;50.874;3.656;2023-01-04T11:23:13;4.63;;;2.17;;
21046;SDS011;10682;50.874;3.656;2023-01-04T11:25:47;6.63;;;2.10;;
21046;SDS011;10682;50.874;3.656;2023-01-04T11:28:35;4.70;;;1.43;;
21046;SDS011;10682;50.874;3.656;2023-01-04T11:33:51;6.43;;;2.93;;
21046;SDS011;10682;50.874;3.656;2023-01-04T11:38:56;4.13;;;1.90;;
21046;SDS011;10682;50.874;3.656;2023-01-04T11:41:24;3.50;;;1.60;;
21046;SDS011;10682;50.874;3.656;2023-01-04T11:44:00;3.77;;;2.40;;
21046;SDS011;10682;50.874;3.656;2023-01-04T11:46:32;5.23;;;2.37;;
21046;SDS011;10682;50.874;3.656;2023-01-04T11:49:00;5.90;;;2.37;;
21046;SDS011;10682;50.874;3.656;2023-01-04T11:56:39;6.00;;;2.90;;
21046;SDS011;10682;50.874;3.656;2023-01-04T11:59:37;3.97;;;1.60;;
21046;SDS011;10682;50.874;3.656;2023-01-04T12:05:15;5.80;;;1.90;;
21046;SDS011;10682;50.874;3.656;2023-01-04T12:07:54;4.40;;;1.30;;
21046;SDS011;10682;50.874;3.656;2023-01-04T12:10:22;3.30;;;1.70;;
21046;SDS011;10682;50.874;3.656;2023-01-04T12:12:53;2.53;;;1.40;;
21046;SDS011;10682;50.874;3.656;2023-01-04T12:18:24;4.33;;;1.47;;
21046;SDS011;10682;50.874;3.656;2023-01-04T12:21:03;4.90;;;2.30;;
21046;SDS011;10682;50.874;3.656;2023-01-04T12:23:31;10.70;;;4.33;;
21046;SDS011;10682;50.874;3.656;2023-01-04T12:25:59;10.27;;;4.27;;
21046;SDS011;10682;50.874;3.656;2023-01-04T12:33:48;5.83;;;3.00;;
21046;SDS011;10682;50.874;3.656;2023-01-04T12:36:52;7.37;;;4.17;;
21046;SDS011;10682;50.874;3.656;2023-01-04T12:39:40;4.07;;;2.07;;
21046;SDS011;10682;50.874;3.656;2023-01-04T12:42:11;3.80;;;1.70;;
21046;SDS011;10682;50.874;3.656;2023-01-04T12:50:09;5.60;;;2.50;;
21046;SDS011;10682;50.874;3.656;2023-01-04T12:58:00;4.90;;;1.97;;
21046;SDS011;10682;50.874;3.656;2023-01-04T13:01:30;5.23;;;1.97;;
21046;SDS011;10682;50.874;3.656;2023-01-04T13:03:59;5.70;;;2.10;;
21046;SDS011;10682;50.874;3.656;2023-01-04T13:06:48;8.30;;;2.40;;
21046;SDS011;10682;50.874;3.656;2023-01-04T13:09:19;5.67;;;2.23;;
21046;SDS011;10682;50.874;3.656;2023-01-04T13:12:00;2.83;;;1.60;;
21046;SDS011;10682;50.874;3.656;2023-01-04T13:14:46;5.93;;;2.10;;
21046;SDS011;10682;50.874;3.656;2023-01-04T13:19:47;7.83;;;1.87;;
21046;SDS011;10682;50.874;3.656;2023-01-04T13:22:16;11.33;;;2.60;;
21046;SDS011;10682;50.874;3.656;2023-01-04T13:24:54;8.90;;;1.87;;
21046;SDS011;10682;50.874;3.656;2023-01-04T13:27:23;19.27;;;4.80;;
21046;SDS011;10682;50.874;3.656;2023-01-04T13:29:51;20.00;;;3.57;;
21046;SDS011;10682;50.874;3.656;2023-01-04T13:32:23;11.17;;;2.50;;
21046;SDS011;10682;50.874;3.656;2023-01-04T13:37:44;10.63;;;1.93;;
21046;SDS011;10682;50.874;3.656;2023-01-04T13:40:21;13.43;;;6.47;;
21046;SDS011;10682;50.874;3.656;2023-01-04T13:46:15;7.93;;;2.67;;
21046;SDS011;10682;50.874;3.656;2023-01-04T13:48:47;15.83;;;2.17;;
21046;SDS011;10682;50.874;3.656;2023-01-04T13:51:30;16.37;;;2.57;;
21046;SDS011;10682;50.874;3.656;2023-01-04T13:54:04;12.70;;;3.07;;
21046;SDS011;10682;50.874;3.656;2023-01-04T13:56:43;11.80;;;2.27;;
21046;SDS011;10682;50.874;3.656;2023-01-04T13:59:20;12.00;;;3.30;;
21046;SDS011;10682;50.874;3.656;2023-01-04T14:01:47;11.30;;;2.50;;
21046;SDS011;10682;50.874;3.656;2023-01-04T14:04:23;11.40;;;1.97;;
21046;SDS011;10682;50.874;3.656;2023-01-04T14:06:53;11.57;;;1.63;;
21046;SDS011;10682;50.874;3.656;2023-01-04T14:09:33;9.53;;;2.30;;
21046;SDS011;10682;50.874;3.656;2023-01-04T14:12:15;6.40;;;2.63;;
21046;SDS011;10682;50.874;3.656;2023-01-04T14:14:55;7.97;;;4.17;;
21046;SDS011;10682;50.874;3.656;2023-01-04T14:17:58;7.97;;;2.47;;
21046;SDS011;10682;50.874;3.656;2023-01-04T14:22:54;8.37;;;2.43;;
21046;SDS011;10682;50.874;3.656;2023-01-04T14:28:27;2.90;;;1.33;;
21046;SDS011;10682;50.874;3.656;2023-01-04T14:41:38;6.50;;;1.40;;
21046;SDS011;10682;50.874;3.656;2023-01-04T14:44:14;10.03;;;2.10;;
21046;SDS011;10682;50.874;3.656;2023-01-04T14:46:47;5.97;;;1.43;;
21046;SDS011;10682;50.874;3.656;2023-01-04T14:49:18;7.27;;;1.50;;
21046;SDS011;10682;50.874;3.656;2023-01-04T14:51:48;10.63;;;1.77;;
21046;SDS011;10682;50.874;3.656;2023-01-04T14:54:18;10.27;;;2.60;;
21046;SDS011;10682;50.874;3.656;2023-01-04T14:56:51;18.47;;;3.10;;
21046;SDS011;10682;50.874;3.656;2023-01-04T14:59:19;19.43;;;3.57;;
21046;SDS011;10682;50.874;3.656;2023-01-04T15:01:53;17.83;;;3.03;;
21046;SDS011;10682;50.874;3.656;2023-01-04T15:04:22;22.03;;;3.43;;
21046;SDS011;10682;50.874;3.656;2023-01-04T15:06:57;24.17;;;4.63;;
21046;SDS011;10682;50.874;3.656;2023-01-04T15:09:25;23.70;;;3.60;;
21046;SDS011;10682;50.874;3.656;2023-01-04T15:11:53;28.37;;;3.70;;
21046;SDS011;10682;50.874;3.656;2023-01-04T15:14:21;24.93;;;3.63;;
21046;SDS011;10682;50.874;3.656;2023-01-04T15:16:48;29.07;;;5.60;;
21046;SDS011;10682;50.874;3.656;2023-01-04T15:19:16;33.53;;;6.10;;
21046;SDS011;10682;50.874;3.656;2023-01-04T15:21:43;31.70;;;5.07;;
21046;SDS011;10682;50.874;3.656;2023-01-04T15:24:10;26.80;;;4.17;;
21046;SDS011;10682;50.874;3.656;2023-01-04T15:26:37;32.57;;;5.60;;
21046;SDS011;10682;50.874;3.656;2023-01-04T15:29:05;28.60;;;4.43;;
21046;SDS011;10682;50.874;3.656;2023-01-04T15:31:33;33.00;;;5.33;;
21046;SDS011;10682;50.874;3.656;2023-01-04T15:34:05;43.20;;;6.03;;
21046;SDS011;10682;50.874;3.656;2023-01-04T15:36:34;33.97;;;6.03;;
21046;SDS011;10682;50.874;3.656;2023-01-04T15:39:04;46.13;;;5.90;;
21046;SDS011;10682;50.874;3.656;2023-01-04T15:41:32;38.30;;;5.30;;
21046;SDS011;10682;50.874;3.656;2023-01-04T15:44:18;50.43;;;6.60;;
21046;SDS011;10682;50.874;3.656;2023-01-04T15:46:45;28.60;;;5.53;;
21046;SDS011;10682;50.874;3.656;2023-01-04T15:49:12;40.67;;;5.30;;
21046;SDS011;10682;50.874;3.656;2023-01-04T15:51:43;40.37;;;7.10;;
21046;SDS011;10682;50.874;3.656;2023-01-04T15:54:11;44.03;;;8.60;;
21046;SDS011;10682;50.874;3.656;2023-01-04T15:56:38;40.83;;;7.63;;
21046;SDS011;10682;50.874;3.656;2023-01-04T15:59:05;56.60;;;11.67;;
21046;SDS011;10682;50.874;3.656;2023-01-04T16:01:32;53.93;;;11.87;;
21046;SDS011;10682;50.874;3.656;2023-01-04T16:03:59;46.97;;;8.47;;
21046;SDS011;10682;50.874;3.656;2023-01-04T16:06:27;49.50;;;8.60;;
21046;SDS011;10682;50.874;3.656;2023-01-04T16:08:54;45.60;;;6.43;;
21046;SDS011;10682;50.874;3.656;2023-01-04T16:11:24;45.77;;;5.90;;
21046;SDS011;10682;50.874;3.656;2023-01-04T16:13:51;40.73;;;6.30;;
21046;SDS011;10682;50.874;3.656;2023-01-04T16:16:19;38.07;;;6.27;;
21046;SDS011;10682;50.874;3.656;2023-01-04T16:18:50;44.13;;;5.97;;
21046;SDS011;10682;50.874;3.656;2023-01-04T16:21:19;47.93;;;6.30;;
21046;SDS011;10682;50.874;3.656;2023-01-04T16:23:50;41.83;;;6.23;;
21046;SDS011;10682;50.874;3.656;2023-01-04T16:26:27;44.53;;;10.80;;
21046;SDS011;10682;50.874;3.656;2023-01-04T16:28:54;51.00;;;9.63;;
21046;SDS011;10682;50.874;3.656;2023-01-04T16:31:21;50.30;;;7.97;;
21046;SDS011;10682;50.874;3.656;2023-01-04T16:33:52;43.43;;;6.80;;
21046;SDS011;10682;50.874;3.656;2023-01-04T16:36:19;43.83;;;6.90;;
21046;SDS011;10682;50.874;3.656;2023-01-04T16:38:46;40.97;;;6.77;;
21046;SDS011;10682;50.874;3.656;2023-01-04T16:41:15;48.53;;;8.00;;
21046;SDS011;10682;50.874;3.656;2023-01-04T16:43:47;49.00;;;7.60;;
21046;SDS011;10682;50.874;3.656;2023-01-04T16:46:18;45.77;;;7.57;;
21046;SDS011;10682;50.874;3.656;2023-01-04T16:49:00;41.43;;;6.10;;
21046;SDS011;10682;50.874;3.656;2023-01-04T16:51:35;51.17;;;7.00;;
21046;SDS011;10682;50.874;3.656;2023-01-04T16:54:05;53.90;;;7.10;;
21046;SDS011;10682;50.874;3.656;2023-01-04T16:56:35;55.87;;;6.80;;
21046;SDS011;10682;50.874;3.656;2023-01-04T16:59:03;46.50;;;6.03;;
21046;SDS011;10682;50.874;3.656;2023-01-04T17:01:32;52.57;;;8.17;;
21046;SDS011;10682;50.874;3.656;2023-01-04T17:04:04;56.60;;;7.50;;
21046;SDS011;10682;50.874;3.656;2023-01-04T17:06:39;49.87;;;7.63;;
21046;SDS011;10682;50.874;3.656;2023-01-04T17:09:11;49.67;;;7.20;;
21046;SDS011;10682;50.874;3.656;2023-01-04T17:11:45;46.37;;;8.73;;
21046;SDS011;10682;50.874;3.656;2023-01-04T17:14:42;41.77;;;7.00;;
21046;SDS011;10682;50.874;3.656;2023-01-04T17:17:09;54.90;;;7.70;;
21046;SDS011;10682;50.874;3.656;2023-01-04T17:19:36;37.43;;;6.27;;